New Suffolk, NY (11956)

8:41 AM EDT on August 20, 2014 (GMT -0400)
Nassau Point | Change Station
CLOSE
Current Station
Personal Weather Station
Location: Cutchogue, NY
Elevation: 42 ft
Nearby Weather Stations

Elev 42 ft 41.00 °N, 72.44 °W | Updated 17 seconds ago

Overcast
Overcast
68.5 °F
Feels Like 68.5 °F
N
6.0
Wind Variable Wind from NNW

Today
High -- | Low -- °F
--% Chance of Precip.
Yesterday
High -- | Low -- °F
Precip. -- in
6:04 AM 7:41 PM
Waning Crescent, 22% visible
Pressure 30.01 in
Visibility -9999.0 miles
Clouds Overcast 300 ft
Dew Point 67 °F
Humidity 95%
Rainfall 0.00 in
Snow Depth Not available.
UV 0 out of 12
Pollen 9.10 out of 12
Air Quality Not available.
Flu Activity Not available.
METAR KHTO 201155Z VRB04KT 10FT OVC003 18/17 A3001

More Conditions Fewer Conditions

Pressure 30.01 in
Visibility -9999.0 miles
Clouds Overcast 300 ft
Dew Point 67 °F
Humidity 95%
Rainfall 0.00 in
Snow Depth Not available.
UV 0 out of 12
Pollen 9.10 out of 12
Air Quality Not available.
Flu Activity Not available.
METAR KHTO 201155Z VRB04KT 10FT OVC003 18/17 A3001

More Conditions Fewer Conditions

10-Day Weather Forecast

Almanac

Astronomy

Aug. 20, 2014 Rise Set
Actual Time 6:04 AM EDT 7:41 PM EDT
Civil Twilight 5:35 AM EDT 8:10 PM EDT
Nautical Twilight 5:00 AM EDT 8:45 PM EDT
Astronomical Twilight 4:22 AM EDT 9:22 PM EDT
Moon 1:41 AM EDT 4:24 PM EDT
Length of Visible Light 14h 34m
Length of Day
13h 36m
Tomorrow will be 2m 29s shorter.
Waning Crescent, 22% of the Moon is Illuminated
Today
Waning Crescent
Aug 25
New
Sep 2
First Quarter
Sep 8
Full
Sep 15
Last Quarter

Today's Extremes

State Highs State Lows

Community

WunderPhotos

Upload Photos

1,745,618 photos uploaded!

Nearby

Air Quality

  Air Quality AQ Index Pollutant
Yesterday Good
OZONE
Wednesday Good
OZONE
Wednesday Good
PM2.5

Snow Depth

Station Depth Elevation
No new snow has been reported.

Earthquake Activity

City Distance Mag. Time & Date
Deep River Center, Connecticut 24 miles 2.7 3:09 AM EDT
2014-08-14
Minimum magnitude displayed is 2.5.

Coastal Water Temperatures

Place Temperature
New London, CT 69.1 °F

Nearby Weather Stations